Flight Track Log - Related Links

Times and Time Zones

All times are in EDT time to prevent confusion due to time zone crossing. See the EJA122 flight status page for this flight to view local times or setup timezone preferences in your user account.

Time Position Orientation Groundspeed Altitude Reporting Facility
EDT Latitude Longitude Course Direction KTS km/h feet Rate Location/Type
Tue 17h57:15 41.9083 -72.7164 242° Southwest 177 328 3.400  Level Boston Center
Tue 17h58:16 41.9289 -72.7889 291° West 233 431 4.000 1.091 Climbing Boston Center
Tue 17h59:16 41.9850 -72.8533 320° Northwest 269 499 5.600 2.727 Climbing Boston Center
Tue 18h00:17 42.0389 -72.9236 316° Northwest 272 504 9.500 2.182 Climbing Boston Center
Tue 18h01:17 42.1306 -72.9383 353° North 369 684 10.000 250 Climbing Boston Center
Tue 18h02:17 42.2078 -72.9081 16° North 372 689 10.000  Level Boston Center
Tue 18h03:17 42.3100 -72.8669 17° North 378 700 10.000  Level Boston Center
Tue 18h04:17 42.3914 -72.8308 18° North 352 652 10.000  Level Boston Center
Tue 18h05:17 42.4936 -72.7892 17° North 342 634 10.000  Level Boston Center
Tue 18h06:17 42.5772 -72.7531 18° North 342 634 10.000  Level Boston Center
Tue 18h07:17 42.6814 -72.7111 16° North 348 644 10.000  Level Boston Center
Tue 18h08:17 42.7753 -72.6719 17° North 348 644 10.000  Level Boston Center
Tue 18h09:17 42.8692 -72.6328 17° North 343 636 10.000  Level Boston Center
Tue 18h10:17 42.9589 -72.5933 18° North 343 636 10.000  Level Boston Center
Tue 18h11:17 43.0444 -72.5453 22° Northeast 338 626 10.000  Level Boston Center
Tue 18h12:17 43.0964 -72.4686 47° Northeast 332 615 10.000  Level Boston Center
Tue 18h13:17 43.1861 -72.3689 39° Northeast 332 615 10.000 -100 Level Boston Center
Tue 18h14:17 43.2819 -72.3489 North 326 604 9.800 -500 Descending Boston Center
Tue 18h15:17 43.3611 -72.3400 North 300 555 9.000 -1.100 Descending Boston Center
Tue 18h16:17 43.4236 -72.3344 North 259 480 7.600 -1.600 Descending Boston Center
Tue 18h17:17 43.4842 -72.3286 North 232 430 5.800 -1.550 Descending Boston Center
Tue 18h18:17 43.5444 -72.3256 North 220 407 4.500 -1.350 Descending Boston Center
Tue 18h19:17 43.5967 -72.3397 349° North 215 398 3.100 -900 Descending Boston Center
Tue 18h20:17 43.6592 -72.3453 356° North 209 388 2.700 -400 Descending Boston Center

Login

Don't have an account? Register now (free) for customized features, flight alerts, and more!